Time;durP1;ratioP1;P1;durP2;ratioP2;P2;SDS_P1;SDS_P2;PMS_P1;PMS_P2;Temp;Humidity;BMP_temperature;BMP_pressure;BME280_temperature;BME280_humidity;BME280_pressure;Samples;Min_cycle;Max_cycle;Signal;HPM_P1;HPM_P2
2021/10/08 00:00:34;;;;;;;2.83;2.45;;;10.40;99.90;;;;;;5074820;28;20114;-83
2021/10/08 00:02:59;;;;;;;4.20;2.35;;;10.40;99.90;;;;;;5076949;28;20028;-83
2021/10/08 00:05:25;;;;;;;3.78;2.53;;;10.70;99.90;;;;;;5075496;28;20040;-83
2021/10/08 00:07:50;;;;;;;3.85;2.30;;;10.20;99.90;;;;;;5075692;28;20100;-83
2021/10/08 00:10:16;;;;;;;2.83;2.22;;;10.10;99.90;;;;;;5072557;28;20393;-83
2021/10/08 00:12:42;;;;;;;2.97;2.67;;;10.10;99.90;;;;;;5072616;28;20072;-83
2021/10/08 00:15:08;;;;;;;3.80;2.60;;;10.10;99.90;;;;;;5075244;28;20190;-83
2021/10/08 00:17:34;;;;;;;3.50;2.53;;;10.20;99.90;;;;;;5075112;28;20511;-83
2021/10/08 00:20:00;;;;;;;3.83;2.58;;;10.20;99.90;;;;;;5075678;28;20033;-83
2021/10/08 00:22:25;;;;;;;4.32;2.80;;;10.10;99.90;;;;;;5074806;28;20115;-83
2021/10/08 00:24:51;;;;;;;4.03;2.70;;;10.10;99.90;;;;;;5070484;28;20029;-83
2021/10/08 00:27:16;;;;;;;3.65;2.85;;;10.10;99.90;;;;;;5076113;28;20032;-83
2021/10/08 00:29:42;;;;;;;5.28;2.70;;;10.20;99.90;;;;;;5075302;28;20078;-83
2021/10/08 00:32:08;;;;;;;3.38;2.35;;;10.10;99.90;;;;;;5074460;28;20039;-83
2021/10/08 00:34:33;;;;;;;2.97;2.30;;;10.20;99.90;;;;;;5074788;28;20024;-83
2021/10/08 00:36:59;;;;;;;5.05;2.70;;;9.90;99.90;;;;;;5070709;28;20040;-83
2021/10/08 00:39:26;;;;;;;4.45;2.88;;;9.80;99.90;;;;;;5075813;28;20050;-83
2021/10/08 00:41:52;;;;;;;5.70;2.78;;;9.80;99.90;;;;;;5075706;28;20107;-83
2021/10/08 00:44:18;;;;;;;4.32;2.25;;;9.80;99.90;;;;;;5074481;28;20557;-83
2021/10/08 00:46:44;;;;;;;2.60;2.40;;;10.10;99.90;;;;;;5074798;28;20028;-83
2021/10/08 00:49:11;;;;;;;2.70;2.40;;;9.90;99.90;;;;;;5071058;28;20017;-83
2021/10/08 00:51:37;;;;;;;4.57;2.33;;;10.30;99.90;;;;;;5073413;28;20500;-83
2021/10/08 00:54:03;;;;;;;4.15;2.42;;;9.90;99.90;;;;;;5074059;28;20028;-83
2021/10/08 00:56:30;;;;;;;2.70;2.33;;;9.80;99.90;;;;;;5074343;28;20388;-84
2021/10/08 00:58:57;;;;;;;2.95;2.67;;;9.90;99.90;;;;;;5074502;28;20028;-83
2021/10/08 01:01:23;;;;;;;2.95;2.60;;;9.70;99.90;;;;;;5073749;28;20441;-83
2021/10/08 01:03:50;;;;;;;3.85;2.20;;;10.30;99.90;;;;;;5070928;28;20108;-83
2021/10/08 01:06:16;;;;;;;2.85;2.53;;;9.80;99.90;;;;;;5076746;28;20025;-83
2021/10/08 01:08:42;;;;;;;3.78;2.20;;;9.60;99.90;;;;;;5073739;28;20119;-83
2021/10/08 01:11:07;;;;;;;2.78;2.45;;;9.70;99.90;;;;;;5074625;28;20389;-83
2021/10/08 01:13:33;;;;;;;3.83;2.38;;;9.60;99.90;;;;;;5074193;28;20094;-83
2021/10/08 01:15:59;;;;;;;2.95;2.25;;;10.00;99.90;;;;;;5070236;28;20036;-83
2021/10/08 01:18:25;;;;;;;3.72;2.53;;;9.50;99.90;;;;;;5075755;28;20078;-83
2021/10/08 01:20:51;;;;;;;3.63;2.70;;;9.70;99.90;;;;;;5074822;28;20028;-83
2021/10/08 01:23:17;;;;;;;2.72;2.47;;;9.60;99.90;;;;;;5073602;28;20119;-83
2021/10/08 01:25:43;;;;;;;4.20;2.35;;;9.60;99.90;;;;;;5074526;28;20035;-84
2021/10/08 01:28:08;;;;;;;3.05;2.08;;;9.90;99.90;;;;;;5069412;28;20029;-83
2021/10/08 01:30:34;;;;;;;2.63;2.42;;;9.60;99.90;;;;;;5073192;28;20527;-83
2021/10/08 01:33:01;;;;;;;3.22;2.60;;;9.70;99.90;;;;;;5073917;28;20066;-83
2021/10/08 01:35:27;;;;;;;3.92;2.42;;;9.50;99.90;;;;;;5073835;28;20546;-83
2021/10/08 01:37:52;;;;;;;2.55;2.17;;;9.50;99.90;;;;;;5073538;28;20107;-83
2021/10/08 01:40:20;;;;;;;2.70;2.50;;;9.50;99.90;;;;;;5072511;28;20040;-83
2021/10/08 01:42:45;;;;;;;3.00;2.10;;;9.30;99.90;;;;;;5070904;28;20039;-83
2021/10/08 01:45:13;;;;;;;3.05;2.40;;;9.40;99.90;;;;;;5075822;28;20044;-83
2021/10/08 01:47:39;;;;;;;2.40;2.20;;;9.90;99.90;;;;;;5073698;28;20040;-83
2021/10/08 01:50:06;;;;;;;2.55;2.10;;;9.30;99.90;;;;;;5074167;28;20025;-83
2021/10/08 01:52:31;;;;;;;2.95;2.63;;;9.30;99.90;;;;;;5073059;28;20031;-83
2021/10/08 01:54:57;;;;;;;6.88;3.03;;;9.20;99.90;;;;;;5069864;28;20041;-84
2021/10/08 01:57:25;;;;;;;3.03;2.40;;;9.30;99.90;;;;;;5076185;28;20020;-83
2021/10/08 01:59:51;;;;;;;4.32;2.30;;;9.30;99.90;;;;;;5072553;28;20190;-83
2021/10/08 02:02:17;;;;;;;3.53;2.55;;;9.30;99.90;;;;;;5074029;28;20396;-83
2021/10/08 02:04:43;;;;;;;3.20;2.50;;;9.60;99.90;;;;;;5073195;28;20016;-84
2021/10/08 02:07:08;;;;;;;4.50;2.55;;;9.50;99.90;;;;;;5068447;28;20531;-83
2021/10/08 02:09:34;;;;;;;3.17;2.38;;;9.30;99.90;;;;;;5072984;28;20110;-83
2021/10/08 02:11:59;;;;;;;3.15;2.10;;;9.30;99.90;;;;;;5073345;28;20490;-83
2021/10/08 02:14:25;;;;;;;2.70;2.47;;;9.30;99.90;;;;;;5073546;28;20504;-83
2021/10/08 02:16:51;;;;;;;3.35;2.28;;;9.30;99.90;;;;;;5073935;28;20488;-83
2021/10/08 02:19:16;;;;;;;2.35;2.10;;;9.70;99.90;;;;;;5072152;28;20066;-83
2021/10/08 02:21:42;;;;;;;5.88;2.60;;;9.40;99.90;;;;;;5069987;28;20112;-83
2021/10/08 02:24:08;;;;;;;4.75;2.58;;;9.40;99.90;;;;;;5075727;28;20090;-83
2021/10/08 02:26:33;;;;;;;2.80;2.35;;;9.50;99.90;;;;;;5073792;28;20544;-83
2021/10/08 02:28:59;;;;;;;2.35;2.15;;;9.50;99.90;;;;;;5073477;28;20112;-83
2021/10/08 02:31:24;;;;;;;3.30;2.60;;;9.50;99.90;;;;;;5072896;28;20436;-83
2021/10/08 02:33:50;;;;;;;3.55;2.65;;;9.50;99.90;;;;;;5068591;28;20086;-83
2021/10/08 02:36:16;;;;;;;3.17;2.60;;;9.70;99.90;;;;;;5075382;28;20017;-83
2021/10/08 02:38:43;;;;;;;4.93;2.40;;;9.70;99.90;;;;;;5074849;28;20556;-83
2021/10/08 02:41:09;;;;;;;3.53;2.40;;;9.80;99.90;;;;;;5077450;28;20408;-83
2021/10/08 02:43:35;;;;;;;6.05;2.45;;;9.90;99.90;;;;;;5076005;28;20122;-83
2021/10/08 02:46:00;;;;;;;5.80;2.47;;;10.00;99.90;;;;;;5070454;28;20131;-83
2021/10/08 02:48:26;;;;;;;2.85;2.25;;;10.00;99.90;;;;;;5078175;28;20024;-83
2021/10/08 02:50:52;;;;;;;4.32;2.60;;;10.10;99.90;;;;;;5076616;28;20123;-83
2021/10/08 02:53:18;;;;;;;3.10;2.50;;;10.10;99.90;;;;;;5076805;28;20237;-83
2021/10/08 02:55:44;;;;;;;5.18;2.78;;;10.20;99.90;;;;;;5076886;28;20032;-84
2021/10/08 02:58:09;;;;;;;2.70;2.50;;;10.20;99.90;;;;;;5074505;28;20081;-82
2021/10/08 03:00:35;;;;;;;4.90;2.72;;;10.10;99.90;;;;;;5075836;28;20397;-83
2021/10/08 03:03:01;;;;;;;2.97;2.47;;;10.10;99.90;;;;;;5077804;28;20025;-83
2021/10/08 03:05:27;;;;;;;5.07;2.70;;;10.10;99.90;;;;;;5076666;28;20094;-83
2021/10/08 03:07:52;;;;;;;4.88;2.67;;;10.00;99.90;;;;;;5076281;28;20021;-83
2021/10/08 03:10:19;;;;;;;6.10;2.65;;;10.00;99.90;;;;;;5075606;28;20028;-83
2021/10/08 03:12:46;;;;;;;3.88;2.80;;;10.00;99.90;;;;;;5073347;28;20024;-83
2021/10/08 03:15:11;;;;;;;3.80;2.65;;;10.10;99.90;;;;;;5078832;28;20476;-83
2021/10/08 03:17:37;;;;;;;2.83;2.53;;;9.80;99.90;;;;;;5076360;28;20056;-83
2021/10/08 03:20:05;;;;;;;3.83;2.70;;;9.90;99.90;;;;;;5075847;28;20029;-83
2021/10/08 03:22:31;;;;;;;5.32;2.80;;;10.10;99.90;;;;;;5076489;28;20036;-83
2021/10/08 03:24:57;;;;;;;3.55;2.65;;;10.20;99.90;;;;;;5070548;28;20063;-83
2021/10/08 03:27:23;;;;;;;4.05;2.70;;;10.20;99.90;;;;;;5078199;28;20017;-83
2021/10/08 03:29:49;;;;;;;4.53;2.70;;;10.40;99.90;;;;;;5074647;28;20036;-83
2021/10/08 03:32:15;;;;;;;4.00;2.95;;;10.20;99.90;;;;;;5076062;28;20024;-83
2021/10/08 03:34:41;;;;;;;4.22;2.90;;;10.20;99.90;;;;;;5075482;28;20042;-83
2021/10/08 03:37:10;;;;;;;2.95;2.65;;;10.40;99.90;;;;;;5073238;28;20025;-83
2021/10/08 03:39:39;;;;;;;3.95;2.92;;;10.10;99.90;;;;;;5073775;28;20111;-83
2021/10/08 03:42:05;;;;;;;4.68;2.83;;;10.20;99.90;;;;;;5076404;28;20021;-83
2021/10/08 03:44:38;;;;;;;2.92;2.63;;;10.50;99.90;;;;;;5075842;28;20059;-83
2021/10/08 03:47:14;;;;;;;4.40;2.80;;;10.30;99.90;;;;;;5075896;28;20046;-83
2021/10/08 03:49:41;;;;;;;4.28;2.83;;;10.30;99.90;;;;;;5075080;28;20035;-83
2021/10/08 03:52:07;;;;;;;4.28;2.90;;;10.40;99.90;;;;;;5072773;28;20016;-83
2021/10/08 03:54:32;;;;;;;4.80;3.22;;;10.60;99.90;;;;;;5075838;28;20032;-83
2021/10/08 03:56:58;;;;;;;3.90;3.45;;;10.40;99.90;;;;;;5074749;28;20411;-83
2021/10/08 03:59:23;;;;;;;4.75;3.00;;;10.50;99.90;;;;;;5075539;28;20043;-83
2021/10/08 04:01:49;;;;;;;5.18;3.13;;;10.30;99.90;;;;;;5075620;28;20020;-83
2021/10/08 04:04:15;;;;;;;4.90;3.80;;;10.10;99.90;;;;;;5072446;28;20037;-83
2021/10/08 04:06:40;;;;;;;4.13;3.58;;;10.20;99.90;;;;;;5073995;28;20024;-83
2021/10/08 04:09:07;;;;;;;3.55;3.17;;;10.10;99.90;;;;;;5075340;28;20021;-83
2021/10/08 04:11:33;;;;;;;4.47;3.15;;;10.20;99.90;;;;;;5075107;28;20036;-83
2021/10/08 04:13:59;;;;;;;9.35;3.55;;;10.70;99.90;;;;;;5075421;28;20434;-83
2021/10/08 04:16:25;;;;;;;3.58;3.17;;;10.60;99.90;;;;;;5075146;28;20012;-83
2021/10/08 04:18:51;;;;;;;3.85;3.40;;;10.20;99.90;;;;;;5071044;28;20086;-83
2021/10/08 04:21:17;;;;;;;5.82;3.53;;;10.20;99.90;;;;;;5077232;28;20021;-83
2021/10/08 04:23:43;;;;;;;6.25;4.00;;;10.20;99.90;;;;;;5074928;28;20456;-83
2021/10/08 04:26:09;;;;;;;3.95;3.55;;;10.30;99.90;;;;;;5075402;28;20044;-83
2021/10/08 04:28:35;;;;;;;8.30;4.13;;;10.00;99.90;;;;;;5075122;28;20020;-83
2021/10/08 04:31:02;;;;;;;5.80;3.88;;;10.50;99.90;;;;;;5071250;28;20025;-83
2021/10/08 04:33:28;;;;;;;4.90;3.75;;;10.20;99.90;;;;;;5075690;28;20439;-83
2021/10/08 04:35:59;;;;;;;6.25;4.28;;;10.40;99.90;;;;;;5074386;28;20024;-83
2021/10/08 04:38:25;;;;;;;4.40;3.38;;;10.40;99.90;;;;;;5074863;28;20378;-83
2021/10/08 04:40:51;;;;;;;6.35;3.80;;;10.20;99.90;;;;;;5074762;28;20048;-83
2021/10/08 04:43:16;;;;;;;6.13;4.30;;;10.50;99.90;;;;;;5071905;28;20095;-83
2021/10/08 04:45:42;;;;;;;4.47;4.07;;;10.50;99.90;;;;;;5072796;28;20086;-83
2021/10/08 04:48:08;;;;;;;4.30;3.90;;;10.10;99.90;;;;;;5074564;28;20108;-84
2021/10/08 04:50:36;;;;;;;5.18;4.45;;;10.20;99.90;;;;;;5074295;28;20105;-84
2021/10/08 04:53:13;;;;;;;7.45;4.13;;;10.20;99.90;;;;;;5072371;28;20055;-83
2021/10/08 04:55:39;;;;;;;4.90;4.38;;;10.30;99.90;;;;;;5074608;28;20039;-83
2021/10/08 04:58:05;;;;;;;4.78;3.90;;;10.00;99.90;;;;;;5071068;28;20025;-83
2021/10/08 05:00:30;;;;;;;5.80;4.22;;;10.00;99.90;;;;;;5074897;28;20385;-83
2021/10/08 05:02:56;;;;;;;6.03;4.32;;;10.30;99.90;;;;;;5071943;28;20358;-83
2021/10/08 05:05:22;;;;;;;6.05;4.05;;;10.20;99.90;;;;;;5074247;28;20040;-83
2021/10/08 05:07:47;;;;;;;8.65;4.63;;;10.20;99.90;;;;;;5074230;28;20026;-83
2021/10/08 05:10:13;;;;;;;7.57;4.47;;;10.20;99.90;;;;;;5072105;28;20419;-82
2021/10/08 05:12:39;;;;;;;7.20;5.07;;;10.20;99.90;;;;;;5073288;28;20024;-81
2021/10/08 05:15:04;;;;;;;8.38;4.70;;;10.10;99.90;;;;;;5073431;28;20654;-81
2021/10/08 05:17:30;;;;;;;7.10;5.20;;;10.20;99.90;;;;;;5073788;28;20039;-83
2021/10/08 05:19:56;;;;;;;6.70;5.25;;;10.20;99.90;;;;;;5074200;28;20044;-82
2021/10/08 05:22:22;;;;;;;6.70;4.57;;;10.20;99.90;;;;;;5071909;28;20127;-82
2021/10/08 05:24:48;;;;;;;6.47;4.93;;;10.30;99.90;;;;;;5070201;28;20113;-81
2021/10/08 05:27:13;;;;;;;8.10;5.43;;;10.80;99.90;;;;;;5074727;28;20078;-80
2021/10/08 05:29:39;;;;;;;6.90;5.13;;;10.40;99.90;;;;;;5073969;28;20495;-81
2021/10/08 05:32:05;;;;;;;7.50;5.30;;;10.40;99.90;;;;;;5073610;28;20565;-81
2021/10/08 05:34:31;;;;;;;6.90;5.68;;;10.40;99.90;;;;;;5073811;28;20027;-81
2021/10/08 05:36:56;;;;;;;7.18;5.50;;;10.80;99.90;;;;;;5070461;28;20070;-82
2021/10/08 05:39:22;;;;;;;9.07;6.15;;;10.50;99.90;;;;;;5091765;28;20024;-84
2021/10/08 05:41:48;;;;;;;8.15;6.10;;;10.60;99.90;;;;;;5074869;28;20033;-86
2021/10/08 05:44:13;;;;;;;9.43;5.97;;;10.50;99.90;;;;;;5073088;28;20028;-86
2021/10/08 05:46:39;;;;;;;8.35;5.72;;;10.60;99.90;;;;;;5073962;28;20505;-85
2021/10/08 05:49:05;;;;;;;11.10;7.85;;;10.70;99.90;;;;;;5070601;28;20029;-84
2021/10/08 05:51:31;;;;;;;13.13;7.90;;;10.70;99.90;;;;;;5073772;28;20037;-85
2021/10/08 05:53:56;;;;;;;8.18;6.80;;;10.60;99.90;;;;;;5074544;28;20392;-85
2021/10/08 05:56:22;;;;;;;9.07;7.20;;;10.80;99.90;;;;;;5074015;28;20052;-85
2021/10/08 05:58:48;;;;;;;8.43;6.72;;;10.70;99.90;;;;;;5073602;28;20165;-84
2021/10/08 06:01:14;;;;;;;8.40;7.18;;;11.00;99.90;;;;;;5070030;28;20028;-84
2021/10/08 06:03:40;;;;;;;10.65;6.82;;;11.00;99.90;;;;;;5071115;28;20029;-84
2021/10/08 06:06:06;;;;;;;8.80;6.90;;;11.10;99.90;;;;;;5075368;28;20037;-84
2021/10/08 06:08:32;;;;;;;9.65;7.03;;;10.90;99.90;;;;;;5073948;28;20031;-84
2021/10/08 06:10:57;;;;;;;12.38;7.32;;;10.80;99.90;;;;;;5073620;28;20628;-84
2021/10/08 06:13:23;;;;;;;10.85;7.10;;;11.30;99.90;;;;;;5074472;28;20020;-85
2021/10/08 06:15:50;;;;;;;13.52;8.55;;;10.90;99.90;;;;;;5073912;28;20032;-84
2021/10/08 06:18:15;;;;;;;13.07;8.32;;;11.10;99.90;;;;;;5079888;28;20507;-84
2021/10/08 06:20:41;;;;;;;12.23;8.93;;;11.20;99.90;;;;;;5078132;28;20024;-85
2021/10/08 06:23:07;;;;;;;9.88;8.73;;;11.00;99.90;;;;;;5077376;28;20067;-84
2021/10/08 06:25:32;;;;;;;11.23;8.55;;;11.10;99.90;;;;;;5077431;28;20127;-84
2021/10/08 06:27:58;;;;;;;15.52;8.75;;;11.00;99.90;;;;;;5072841;28;20025;-85
2021/10/08 06:30:24;;;;;;;11.38;8.70;;;11.10;99.90;;;;;;5079249;28;20037;-85
2021/10/08 06:32:50;;;;;;;14.20;9.05;;;11.20;99.90;;;;;;5077457;28;20020;-84
2021/10/08 06:35:16;;;;;;;11.60;9.07;;;11.10;99.90;;;;;;5077208;28;20488;-84
2021/10/08 06:37:42;;;;;;;11.00;8.77;;;11.20;99.90;;;;;;5076667;28;20028;-84
2021/10/08 06:40:09;;;;;;;11.48;8.73;;;11.20;99.90;;;;;;5073173;28;20108;-84
2021/10/08 06:42:35;;;;;;;10.63;8.50;;;11.40;99.90;;;;;;5076018;28;20112;-84
2021/10/08 06:45:02;;;;;;;11.98;9.27;;;11.50;99.90;;;;;;5076902;28;20041;-84
2021/10/08 06:47:28;;;;;;;12.73;8.82;;;11.50;99.90;;;;;;5076286;28;20048;-83
2021/10/08 06:49:54;;;;;;;11.20;8.40;;;11.60;99.90;;;;;;5077252;28;20036;-84
2021/10/08 06:52:19;;;;;;;12.02;10.07;;;11.70;99.90;;;;;;5076038;28;20032;-83
2021/10/08 06:54:45;;;;;;;11.88;9.73;;;12.10;99.90;;;;;;5074898;28;20110;-84
2021/10/08 06:57:11;;;;;;;12.45;10.63;;;11.70;99.90;;;;;;5078504;28;20031;-84
2021/10/08 06:59:37;;;;;;;10.80;9.35;;;11.70;99.90;;;;;;5077226;28;20392;-84
2021/10/08 07:02:03;;;;;;;14.27;11.85;;;12.10;99.90;;;;;;5077282;28;20032;-84
2021/10/08 07:04:28;;;;;;;14.95;10.93;;;11.60;99.90;;;;;;5077182;28;20064;-83
2021/10/08 07:06:54;;;;;;;17.65;13.20;;;11.70;99.90;;;;;;5072574;28;20382;-82
2021/10/08 07:09:20;;;;;;;13.57;10.73;;;11.60;99.90;;;;;;5079890;28;20056;-91
2021/10/08 07:11:46;;;;;;;12.38;11.07;;;11.50;99.90;;;;;;5075561;28;20396;-90
2021/10/08 07:14:11;;;;;;;13.98;11.52;;;11.90;99.90;;;;;;5074783;28;20028;-91
2021/10/08 07:16:37;;;;;;;12.85;11.02;;;11.60;99.90;;;;;;5077043;28;20032;-91
2021/10/08 07:19:15;;;;;;;14.50;12.00;;;11.70;99.90;;;;;;5073211;28;20025;-90
2021/10/08 07:21:42;;;;;;;13.02;10.27;;;11.80;99.90;;;;;;5074934;28;20135;-90
2021/10/08 07:24:09;;;;;;;11.50;10.30;;;12.60;99.90;;;;;;5114554;27;20020;-92
2021/10/08 07:26:34;;;;;;;13.90;11.15;;;12.50;99.90;;;;;;5077290;28;20036;-84
2021/10/08 07:29:00;;;;;;;12.57;10.07;;;12.20;99.90;;;;;;5076001;28;20448;-84
2021/10/08 07:31:26;;;;;;;44.22;12.60;;;12.00;99.90;;;;;;5075686;28;20070;-84
2021/10/08 07:33:52;;;;;;;31.92;11.40;;;11.90;99.90;;;;;;5072763;28;20027;-83
2021/10/08 07:36:18;;;;;;;15.90;10.20;;;12.00;99.90;;;;;;5078338;28;20052;-91
2021/10/08 07:38:44;;;;;;;25.45;11.85;;;12.00;99.90;;;;;;5076538;28;20056;-87
2021/10/08 07:41:10;;;;;;;18.80;9.93;;;11.90;99.90;;;;;;5074031;28;20036;-86
2021/10/08 07:43:37;;;;;;;14.35;9.60;;;12.10;99.90;;;;;;5076569;28;20031;-86
2021/10/08 07:46:06;;;;;;;13.60;10.05;;;12.10;99.90;;;;;;5072506;28;20036;-90
2021/10/08 07:48:32;;;;;;;12.68;10.77;;;13.10;99.90;;;;;;5075774;28;20068;-89
2021/10/08 07:50:58;;;;;;;11.90;9.38;;;12.50;99.90;;;;;;5074879;28;20091;-90
2021/10/08 07:53:24;;;;;;;11.23;8.68;;;12.50;99.90;;;;;;5082285;28;20035;-88
2021/10/08 07:55:50;;;;;;;33.60;10.82;;;12.70;99.90;;;;;;5084005;28;20063;-85
2021/10/08 07:58:16;;;;;;;10.48;9.18;;;12.90;99.90;;;;;;5072840;28;20056;-85
2021/10/08 08:00:42;;;;;;;15.35;10.18;;;12.80;99.90;;;;;;5073853;28;20021;-85
2021/10/08 08:03:08;;;;;;;10.98;8.40;;;12.60;99.90;;;;;;5075614;28;20029;-85
2021/10/08 08:05:33;;;;;;;11.70;8.90;;;12.80;99.90;;;;;;5075322;28;20515;-85
2021/10/08 08:07:59;;;;;;;11.85;9.20;;;12.80;99.90;;;;;;5075372;28;20052;-85
2021/10/08 08:10:24;;;;;;;14.55;9.82;;;12.80;99.90;;;;;;5074500;28;20024;-85
2021/10/08 08:12:50;;;;;;;10.60;8.20;;;13.10;99.90;;;;;;5072065;28;20035;-85
2021/10/08 08:15:18;;;;;;;10.35;9.25;;;13.60;99.90;;;;;;5077223;28;20021;-86
2021/10/08 08:17:44;;;;;;;9.40;8.57;;;14.10;99.90;;;;;;5075244;28;20033;-84
2021/10/08 08:20:10;;;;;;;9.95;8.27;;;15.30;99.90;;;;;;5075134;28;20040;-84
2021/10/08 08:22:36;;;;;;;9.93;8.23;;;15.50;99.90;;;;;;5075071;28;20431;-86
2021/10/08 08:25:03;;;;;;;10.95;8.02;;;16.90;99.90;;;;;;5071333;28;20055;-83
2021/10/08 08:27:29;;;;;;;8.02;7.22;;;20.20;99.90;;;;;;5076189;28;20027;-84
2021/10/08 08:29:55;;;;;;;8.50;7.60;;;22.20;99.90;;;;;;5074308;28;20032;-86
2021/10/08 08:32:20;;;;;;;10.13;6.85;;;26.50;99.90;;;;;;5075327;28;20098;-87
2021/10/08 08:34:46;;;;;;;9.43;6.63;;;26.50;99.90;;;;;;5074825;28;20023;-83
2021/10/08 08:37:12;;;;;;;9.43;7.47;;;24.70;99.90;;;;;;5070697;28;20029;-84
2021/10/08 08:39:39;;;;;;;14.50;7.13;;;23.80;99.90;;;;;;5073973;28;20111;-82
2021/10/08 08:42:05;;;;;;;8.10;7.30;;;23.80;99.90;;;;;;5073498;28;20475;-83
2021/10/08 08:44:32;;;;;;;9.30;7.97;;;22.70;99.90;;;;;;5070003;28;20123;-83
2021/10/08 08:46:58;;;;;;;9.40;8.40;;;19.70;99.90;;;;;;5074681;28;20050;-83
2021/10/08 08:49:24;;;;;;;8.88;7.10;;;19.80;99.90;;;;;;5074321;28;20044;-84
2021/10/08 08:51:50;;;;;;;7.88;7.18;;;18.60;99.90;;;;;;5070793;28;20108;-81
2021/10/08 08:54:16;;;;;;;8.20;7.40;;;17.40;99.90;;;;;;5076269;28;20104;-81
2021/10/08 08:56:41;;;;;;;8.80;8.00;;;16.30;99.90;;;;;;5074599;28;20039;-82
2021/10/08 08:59:10;;;;;;;8.63;7.82;;;15.30;99.90;;;;;;5074931;28;20029;-82
2021/10/08 09:01:56;;;;;;;14.27;8.77;;;14.80;99.90;;;;;;5074755;28;20400;-82
2021/10/08 09:04:21;;;;;;;8.82;7.93;;;15.10;99.90;;;;;;5071429;28;20024;-82
2021/10/08 09:06:47;;;;;;;11.43;8.02;;;14.70;99.90;;;;;;5070918;28;20036;-82
2021/10/08 09:09:17;;;;;;;8.75;7.70;;;14.90;99.90;;;;;;5076654;28;20013;-82
2021/10/08 09:11:43;;;;;;;11.70;7.97;;;15.20;99.90;;;;;;5074307;28;20428;-83
2021/10/08 09:14:25;;;;;;;8.85;7.95;;;15.30;99.90;;;;;;5074331;28;20070;-81
2021/10/08 09:17:17;;;;;;;8.95;8.05;;;15.20;99.90;;;;;;5072936;28;20441;-81
2021/10/08 09:19:54;;;;;;;9.70;7.40;;;16.00;99.90;;;;;;5073051;28;20031;-82
2021/10/08 09:22:20;;;;;;;7.95;6.50;;;16.70;99.90;;;;;;5072396;28;20799;-82
2021/10/08 09:24:46;;;;;;;7.90;7.10;;;16.80;99.90;;;;;;5071124;28;20035;-83
2021/10/08 09:27:14;;;;;;;7.55;6.55;;;17.10;99.90;;;;;;5076423;28;20025;-83
2021/10/08 09:29:52;;;;;;;9.60;7.28;;;18.10;99.90;;;;;;5070142;28;20060;-84
2021/10/08 09:32:19;;;;;;;7.40;6.50;;;18.00;99.90;;;;;;5073800;28;20052;-83
2021/10/08 09:34:45;;;;;;;7.60;6.85;;;19.90;99.90;;;;;;5073159;28;20487;-83
2021/10/08 09:37:13;;;;;;;10.48;7.28;;;19.20;99.90;;;;;;5070822;28;20090;-83
2021/10/08 09:39:39;;;;;;;7.75;6.63;;;22.10;99.90;;;;;;5072675;28;20609;-83
2021/10/08 09:42:09;;;;;;;6.82;6.18;;;23.00;99.90;;;;;;5075316;28;20035;-83
2021/10/08 09:44:45;;;;;;;7.43;6.72;;;23.40;99.90;;;;;;5073985;28;20060;-83
2021/10/08 09:47:22;;;;;;;7.57;6.60;;;20.50;99.90;;;;;;5073686;28;20552;-83
2021/10/08 09:49:50;;;;;;;8.10;6.60;;;19.10;99.90;;;;;;5073574;28;20032;-84
2021/10/08 09:52:24;;;;;;;9.25;6.53;;;19.00;99.90;;;;;;5071815;28;20032;-83
2021/10/08 09:55:05;;;;;;;8.02;6.45;;;19.30;99.90;;;;;;5070400;28;20025;-84
2021/10/08 09:57:51;;;;;;;7.20;6.50;;;19.30;99.90;;;;;;5083542;28;20495;-84
2021/10/08 10:00:43;;;;;;;7.70;6.03;;;18.30;99.90;;;;;;5074641;28;20024;-84
2021/10/08 10:03:13;;;;;;;6.72;6.07;;;17.90;99.90;;;;;;5073860;28;20508;-83
2021/10/08 10:05:39;;;;;;;6.63;6.03;;;17.80;99.90;;;;;;5073308;28;20072;-83
2021/10/08 10:08:05;;;;;;;6.95;6.25;;;17.90;99.90;;;;;;5073542;28;20052;-85
2021/10/08 10:10:33;;;;;;;8.77;6.60;;;18.20;99.90;;;;;;5064908;28;20037;-85
2021/10/08 10:13:00;;;;;;;7.10;6.43;;;20.10;99.90;;;;;;5084992;28;20302;-85
2021/10/08 10:15:27;;;;;;;7.13;5.30;;;21.20;99.90;;;;;;5074357;28;20119;-84
2021/10/08 10:17:54;;;;;;;5.78;5.28;;;27.50;99.90;;;;;;5072813;28;20159;-84
2021/10/08 10:20:20;;;;;;;6.22;5.63;;;29.90;99.90;;;;;;5073106;28;20033;-86
2021/10/08 10:22:48;;;;;;;7.45;5.43;;;31.10;99.90;;;;;;5073396;28;20055;-82
2021/10/08 10:25:14;;;;;;;6.38;5.78;;;31.60;99.90;;;;;;5071251;28;20492;-85
2021/10/08 10:27:41;;;;;;;7.55;6.63;;;25.10;99.90;;;;;;5072419;28;20032;-82
2021/10/08 10:30:09;;;;;;;7.63;6.80;;;21.90;99.90;;;;;;5071809;28;20017;-82
2021/10/08 10:32:35;;;;;;;7.50;6.45;;;20.00;99.90;;;;;;5073581;28;20094;-85
2021/10/08 10:35:03;;;;;;;8.27;7.20;;;18.80;99.90;;;;;;5071549;28;20029;-85
2021/10/08 10:37:42;;;;;;;8.60;7.03;;;18.00;99.90;;;;;;5071911;28;20035;-85
2021/10/08 10:40:19;;;;;;;7.32;6.55;;;16.70;99.90;;;;;;5070885;28;20035;-84
2021/10/08 10:42:46;;;;;;;7.20;6.45;;;16.90;99.90;;;;;;5070170;28;20030;-84
2021/10/08 10:45:18;;;;;;;8.68;5.68;;;22.20;99.90;;;;;;5075748;28;20086;-86
2021/10/08 10:47:46;;;;;;;7.22;5.90;;;29.00;99.90;;;;;;5073106;28;20055;-86
2021/10/08 10:51:08;;;;;;;5.95;5.35;;;26.40;99.90;;;;;;5073665;28;20480;-86
2021/10/08 10:53:00;;;;;;;8.75;6.30;;;23.30;99.90;;;;;;5065692;28;20098;-83
2021/10/08 10:55:32;;;;;;;6.55;5.95;;;21.40;99.90;;;;;;5073216;28;20032;-82
2021/10/08 10:58:00;;;;;;;7.07;6.47;;;20.10;99.90;;;;;;5053366;28;20021;-83
2021/10/08 11:00:33;;;;;;;7.65;6.13;;;19.40;99.90;;;;;;5076083;28;20484;-84
2021/10/08 11:03:03;;;;;;;6.50;5.85;;;21.10;99.90;;;;;;5077313;28;20051;-83
2021/10/08 11:05:30;;;;;;;7.03;5.90;;;19.40;99.90;;;;;;5076570;28;20135;-83
2021/10/08 11:08:22;;;;;;;7.50;5.82;;;19.20;99.90;;;;;;5076560;28;20030;-82
2021/10/08 11:11:00;;;;;;;8.20;6.18;;;18.80;99.90;;;;;;5072276;28;20036;-82
2021/10/08 11:13:38;;;;;;;9.10;5.97;;;19.40;99.90;;;;;;5074690;28;20373;-82
2021/10/08 11:16:05;;;;;;;8.05;5.78;;;18.70;99.90;;;;;;5056713;28;20060;-82
2021/10/08 11:18:51;;;;;;;7.00;6.30;;;18.00;99.90;;;;;;5076212;28;20479;-82
2021/10/08 11:21:32;;;;;;;8.10;6.78;;;18.00;99.90;;;;;;5077591;28;20028;-82
2021/10/08 11:24:19;;;;;;;6.63;5.93;;;17.30;99.90;;;;;;5077071;28;20055;-82
2021/10/08 11:27:06;;;;;;;6.82;6.18;;;17.10;99.90;;;;;;5076745;28;20028;-82
2021/10/08 11:29:34;;;;;;;8.90;7.30;;;17.00;99.90;;;;;;5076479;28;20040;-82
2021/10/08 11:32:10;;;;;;;7.47;6.75;;;16.60;99.90;;;;;;5076072;28;20109;-83
2021/10/08 11:34:53;;;;;;;8.63;6.45;;;16.60;99.90;;;;;;5076115;28;20024;-82
2021/10/08 11:37:20;;;;;;;17.13;11.27;;;17.10;99.90;;;;;;5074562;28;20487;-83
2021/10/08 11:39:47;;;;;;;64.45;24.25;;;17.70;99.90;;;;;;5073565;28;20349;-82
2021/10/08 11:42:15;;;;;;;7.45;6.68;;;17.70;99.90;;;;;;5077936;28;20020;-82
2021/10/08 11:45:05;;;;;;;10.75;9.68;;;19.10;99.90;;;;;;5075856;28;20044;-82
2021/10/08 11:52:34;;;;;;;7.00;5.97;;;23.30;99.90;;;;;;5075390;28;20036;-83
2021/10/08 11:55:17;;;;;;;6.32;5.72;;;25.80;99.90;;;;;;5070164;28;20382;-83
2021/10/08 11:58:04;;;;;;;7.55;5.95;;;28.30;99.90;;;;;;5073212;28;20032;-83
2021/10/08 12:00:44;;;;;;;8.27;7.47;;;31.00;99.90;;;;;;5085375;28;20028;-83
2021/10/08 12:03:21;;;;;;;6.25;5.65;;;29.30;99.90;;;;;;5075716;28;20498;-83
2021/10/08 12:05:53;;;;;;;5.90;5.38;;;31.20;99.90;;;;;;5075861;28;20511;-82
2021/10/08 12:08:24;;;;;;;6.18;5.57;;;32.10;99.90;;;;;;5077058;28;20672;-85
2021/10/08 12:11:16;;;;;;;6.95;6.35;;;31.20;99.90;;;;;;5074436;28;20090;-82
2021/10/08 12:13:42;;;;;;;6.35;5.85;;;28.90;99.90;;;;;;5075814;28;20361;-82
2021/10/08 12:16:08;;;;;;;6.63;6.05;;;32.00;99.90;;;;;;5072099;28;20032;-83
2021/10/08 12:18:34;;;;;;;6.60;6.00;;;31.00;99.90;;;;;;5074690;28;20556;-83
2021/10/08 12:21:18;;;;;;;6.75;6.15;;;27.70;99.90;;;;;;5076699;28;20567;-82
2021/10/08 12:24:06;;;;;;;6.97;6.38;;;25.40;99.90;;;;;;5075418;28;20040;-83
2021/10/08 12:26:34;;;;;;;6.72;6.13;;;22.10;99.90;;;;;;5075003;28;20043;-82
2021/10/08 12:29:05;;;;;;;7.28;6.55;;;21.20;99.90;;;;;;5075593;28;20032;-82
2021/10/08 12:31:54;;;;;;;7.07;6.38;;;20.70;99.90;;;;;;5073558;28;20042;-82
2021/10/08 12:34:45;;;;;;;7.43;6.75;;;20.40;99.90;;;;;;5072228;28;20097;-82
2021/10/08 12:37:17;;;;;;;7.30;6.57;;;19.70;99.90;;;;;;5058793;28;20017;-82
2021/10/08 12:40:03;;;;;;;6.97;6.38;;;19.00;99.90;;;;;;5070718;28;20025;-82
2021/10/08 12:42:34;;;;;;;7.35;6.65;;;18.20;99.90;;;;;;5084765;28;20046;-83
2021/10/08 12:45:01;;;;;;;7.35;6.75;;;17.90;99.90;;;;;;5075564;28;20032;-82
2021/10/08 12:47:40;;;;;;;7.40;6.50;;;18.30;99.90;;;;;;5074808;28;20044;-82
2021/10/08 12:50:14;;;;;;;7.45;6.75;;;17.80;99.90;;;;;;5075303;28;20056;-82
2021/10/08 12:52:51;;;;;;;6.93;6.32;;;17.80;99.90;;;;;;5074808;28;20035;-82
2021/10/08 12:55:18;;;;;;;7.57;6.82;;;17.70;99.90;;;;;;5073112;28;20028;-82